Time;durP1;ratioP1;P1;durP2;ratioP2;P2;SDS_P1;SDS_P2;PMS_P1;PMS_P2;Temp;Humidity;BMP_temperature;BMP_pressure;BME280_temperature;BME280_humidity;BME280_pressure;Samples;Min_cycle;Max_cycle;Signal;HPM_P1;HPM_P2
2023/04/19 00:01:45;;;;;;;5.85;2.80;;;;;;;11.94;43.21;102401.69;5005404;28;97174;-73
2023/04/19 00:04:11;;;;;;;9.60;3.25;;;;;;;11.81;42.81;102410.72;5000584;28;97771;-71
2023/04/19 00:06:39;;;;;;;5.95;2.75;;;;;;;11.90;42.83;102408.78;5003212;28;99013;-71
2023/04/19 00:09:06;;;;;;;6.70;2.40;;;;;;;11.91;42.21;102407.91;5012722;28;98897;-72
2023/04/19 00:11:34;;;;;;;7.22;3.05;;;;;;;11.98;41.97;102409.56;5007757;28;97188;-71
2023/04/19 00:14:00;;;;;;;7.95;3.33;;;;;;;12.12;41.68;102414.66;5005199;28;97580;-71
2023/04/19 00:16:26;;;;;;;6.53;3.15;;;;;;;12.14;41.40;102409.34;5005796;28;99017;-71
2023/04/19 00:18:53;;;;;;;8.00;3.10;;;;;;;11.95;41.34;102399.00;5008586;28;98963;-71
2023/04/19 00:21:19;;;;;;;7.07;2.85;;;;;;;12.03;40.90;102401.53;5011065;28;97343;-71
2023/04/19 00:23:46;;;;;;;11.77;3.03;;;;;;;12.15;40.78;102395.16;5001614;28;97744;-71
2023/04/19 00:26:14;;;;;;;8.70;2.90;;;;;;;12.28;40.59;102402.00;5015305;28;100293;-71
2023/04/19 00:28:42;;;;;;;6.13;3.08;;;;;;;12.40;40.03;102395.66;5002580;28;99128;-70
2023/04/19 00:31:08;;;;;;;5.38;2.60;;;;;;;12.28;39.67;102400.25;5004541;28;97065;-71
2023/04/19 00:33:35;;;;;;;8.50;2.65;;;;;;;12.23;39.88;102403.88;5003492;28;96875;-71
2023/04/19 00:36:01;;;;;;;6.50;2.03;;;;;;;12.14;39.56;102402.22;5008355;28;99320;-72
2023/04/19 00:38:28;;;;;;;4.82;2.38;;;;;;;12.24;39.21;102398.56;5009765;28;98918;-71
2023/04/19 00:40:55;;;;;;;6.72;2.42;;;;;;;11.97;39.43;102396.31;5002118;28;97411;-70
2023/04/19 00:43:21;;;;;;;6.03;2.10;;;;;;;11.95;39.33;102385.75;5005699;28;97931;-70
2023/04/19 00:45:49;;;;;;;4.05;2.45;;;;;;;11.92;39.37;102400.81;5010906;28;99361;-70
2023/04/19 00:48:16;;;;;;;4.85;2.20;;;;;;;12.08;39.32;102399.69;5015368;28;97688;-70
2023/04/19 00:50:44;;;;;;;6.82;2.40;;;;;;;11.99;39.21;102397.19;5017200;28;97792;-72
2023/04/19 00:53:10;;;;;;;10.93;2.90;;;;;;;11.92;39.14;102395.53;5020028;28;96945;-70
2023/04/19 00:55:38;;;;;;;6.38;2.40;;;;;;;12.13;39.17;102397.84;5003362;28;99280;-70
2023/04/19 00:58:05;;;;;;;6.68;2.40;;;;;;;12.22;39.15;102408.28;5015295;28;98736;-71
2023/04/19 01:00:32;;;;;;;4.90;2.53;;;;;;;12.16;38.97;102395.13;5005764;28;97103;-70
2023/04/19 01:03:00;;;;;;;4.47;2.53;;;;;;;12.29;38.92;102399.34;5014904;28;96856;-72
2023/04/19 01:05:26;;;;;;;5.00;2.42;;;;;;;12.15;39.14;102395.16;5011002;28;97915;-71
2023/04/19 01:07:53;;;;;;;11.48;3.20;;;;;;;12.10;39.18;102394.38;5014652;28;98186;-71
2023/04/19 01:10:19;;;;;;;7.93;2.80;;;;;;;11.94;39.01;102393.75;5010303;28;97348;-69
2023/04/19 01:12:46;;;;;;;5.43;2.20;;;;;;;11.93;39.13;102391.97;5005275;28;101209;-70
2023/04/19 01:15:12;;;;;;;9.25;2.63;;;;;;;12.04;38.84;102394.47;5007763;28;98077;-71
2023/04/19 01:17:39;;;;;;;5.40;2.20;;;;;;;11.95;38.93;102391.03;5008407;28;100464;-71
2023/04/19 01:20:09;;;;;;;5.47;2.35;;;;;;;11.86;39.33;102398.28;5010400;28;97162;-71
2023/04/19 01:22:37;;;;;;;6.88;2.10;;;;;;;11.75;39.30;102395.75;5008546;28;97163;-73
2023/04/19 01:25:05;;;;;;;10.23;2.60;;;;;;;11.66;39.20;102390.56;5020003;28;101442;-71
2023/04/19 01:27:31;;;;;;;7.35;2.50;;;;;;;11.61;39.66;102381.84;5017634;27;97812;-70
2023/04/19 01:29:58;;;;;;;7.25;2.60;;;;;;;11.59;38.99;102389.78;5009181;28;97928;-71
2023/04/19 01:32:25;;;;;;;4.97;2.40;;;;;;;11.38;39.49;102394.47;5022640;28;96841;-71
2023/04/19 01:34:52;;;;;;;6.75;2.40;;;;;;;11.58;39.92;102388.03;5008630;28;98841;-73
2023/04/19 01:37:18;;;;;;;5.00;2.30;;;;;;;11.77;39.73;102393.97;5020410;28;99515;-70
2023/04/19 01:39:46;;;;;;;6.20;2.67;;;;;;;11.50;39.87;102394.31;5020918;28;97176;-72
2023/04/19 01:42:12;;;;;;;3.97;2.40;;;;;;;11.55;39.71;102393.34;5007265;28;96870;-71
2023/04/19 01:44:39;;;;;;;7.60;2.50;;;;;;;11.42;39.82;102386.47;5004108;28;99172;-71
2023/04/19 01:47:05;;;;;;;9.40;2.78;;;;;;;11.41;40.08;102386.50;5013999;28;98923;-71
2023/04/19 01:49:32;;;;;;;7.45;2.10;;;;;;;11.27;39.91;102378.75;5012377;28;96899;-72
2023/04/19 01:51:58;;;;;;;5.18;2.50;;;;;;;11.15;39.98;102381.53;5013997;28;97037;-71
2023/04/19 01:54:25;;;;;;;6.50;2.22;;;;;;;11.11;40.20;102380.69;5009808;27;98994;-73
2023/04/19 01:56:53;;;;;;;3.15;2.22;;;;;;;11.12;40.55;102374.50;5012826;28;98784;-71
2023/04/19 01:59:19;;;;;;;5.97;2.47;;;;;;;11.22;40.51;102383.22;5013109;28;97217;-71
2023/04/19 02:01:46;;;;;;;5.50;2.60;;;;;;;11.27;40.18;102376.09;5012752;28;97478;-70
2023/04/19 02:04:12;;;;;;;6.32;2.65;;;;;;;11.08;40.64;102375.44;5008729;28;99255;-71
2023/04/19 02:06:42;;;;;;;5.80;2.42;;;;;;;11.18;40.58;102371.78;5015747;28;99816;-71
2023/04/19 02:09:08;;;;;;;3.72;2.25;;;;;;;11.15;40.41;102370.97;5016122;28;97489;-71
2023/04/19 02:11:34;;;;;;;6.40;2.47;;;;;;;11.19;40.66;102375.31;5001422;28;97370;-72
2023/04/19 02:14:02;;;;;;;5.25;2.28;;;;;;;11.27;40.75;102376.09;5011156;28;99034;-71
2023/04/19 02:16:29;;;;;;;5.95;2.67;;;;;;;11.16;40.83;102367.41;5011165;28;98039;-71
2023/04/19 02:18:55;;;;;;;5.55;2.40;;;;;;;11.29;41.02;102368.16;5008056;28;96824;-71
2023/04/19 02:21:21;;;;;;;4.15;2.45;;;;;;;11.29;40.50;102362.84;5028265;28;98162;-70
2023/04/19 02:23:48;;;;;;;5.35;2.35;;;;;;;11.28;40.66;102372.56;5007105;28;99601;-72
2023/04/19 02:26:14;;;;;;;7.88;2.38;;;;;;;11.17;40.80;102364.75;5009450;28;99014;-72
2023/04/19 02:28:41;;;;;;;10.40;2.70;;;;;;;11.21;40.69;102364.72;5009534;28;96841;-71
2023/04/19 02:31:08;;;;;;;4.32;2.25;;;;;;;11.20;40.93;102361.19;5016091;28;97955;-71
2023/04/19 02:33:35;;;;;;;5.68;2.35;;;;;;;11.04;41.23;102354.31;5009866;28;99172;-72
2023/04/19 02:36:02;;;;;;;8.75;2.55;;;;;;;11.08;41.39;102361.34;5012176;28;98845;-72
2023/04/19 02:38:28;;;;;;;6.05;2.15;;;;;;;11.01;41.44;102352.59;5014476;28;98902;-71
2023/04/19 02:40:55;;;;;;;7.65;2.50;;;;;;;11.09;41.28;102349.88;5003814;28;98647;-71
2023/04/19 02:43:21;;;;;;;7.20;2.25;;;;;;;11.13;41.37;102352.47;5009118;28;99013;-72
2023/04/19 02:45:47;;;;;;;3.25;1.92;;;;;;;11.03;41.83;102347.28;5009302;28;102046;-73
2023/04/19 02:48:15;;;;;;;7.18;2.08;;;;;;;10.94;41.60;102350.94;5000080;28;96956;-71
2023/04/19 02:50:42;;;;;;;3.60;2.70;;;;;;;10.82;42.01;102339.63;5011821;28;96805;-71
2023/04/19 02:53:08;;;;;;;6.70;2.03;;;;;;;10.80;42.64;102331.69;4999630;28;99787;-71
2023/04/19 02:55:34;;;;;;;4.80;2.35;;;;;;;10.88;42.43;102339.53;5005587;28;98809;-70
2023/04/19 02:58:01;;;;;;;4.75;2.17;;;;;;;10.85;42.37;102334.28;5013990;28;97199;-70
2023/04/19 03:00:27;;;;;;;2.63;1.67;;;;;;;10.71;42.52;102334.44;5018107;28;97146;-71
2023/04/19 03:02:54;;;;;;;7.13;2.17;;;;;;;10.80;42.85;102331.69;5009922;28;98996;-72
2023/04/19 03:05:23;;;;;;;8.05;1.95;;;;;;;10.55;43.07;102331.09;5001816;28;98763;-71
2023/04/19 03:07:49;;;;;;;3.40;2.00;;;;;;;10.64;43.41;102330.97;5008946;28;97419;-70
2023/04/19 03:10:16;;;;;;;5.65;1.90;;;;;;;10.79;43.19;102320.25;5007458;28;97032;-70
2023/04/19 03:12:42;;;;;;;10.90;2.30;;;;;;;10.59;43.56;102318.69;5012102;28;101732;-71
2023/04/19 03:15:10;;;;;;;5.72;2.00;;;;;;;10.75;43.36;102322.94;5014877;28;101809;-72
2023/04/19 03:17:36;;;;;;;4.55;1.90;;;;;;;10.65;43.90;102318.63;5010311;28;96831;-73
2023/04/19 03:20:03;;;;;;;7.47;1.83;;;;;;;10.76;43.51;102309.69;5010680;28;96829;-70
2023/04/19 03:22:31;;;;;;;5.70;1.98;;;;;;;10.68;43.76;102319.50;5014279;28;98952;-71
2023/04/19 03:24:58;;;;;;;7.32;1.92;;;;;;;10.55;44.26;102315.22;5010988;28;99386;-71
2023/04/19 03:27:24;;;;;;;4.20;1.70;;;;;;;10.34;44.90;102315.44;5007220;28;100223;-70
2023/04/19 03:29:51;;;;;;;4.40;1.90;;;;;;;10.34;44.84;102310.16;5013433;28;96809;-69
2023/04/19 03:32:17;;;;;;;5.05;1.85;;;;;;;10.38;45.15;102304.81;5012166;28;99058;-70
2023/04/19 03:34:44;;;;;;;7.70;1.58;;;;;;;10.40;45.22;102302.16;5012407;28;98803;-70
2023/04/19 03:37:10;;;;;;;4.53;1.98;;;;;;;10.45;45.34;102302.97;5008400;28;97430;-70
2023/04/19 03:39:38;;;;;;;4.95;2.00;;;;;;;10.61;45.33;102306.34;5007419;28;96923;-70
2023/04/19 03:42:05;;;;;;;4.97;2.25;;;;;;;10.46;45.49;102301.22;5015538;28;99932;-70
2023/04/19 03:44:32;;;;;;;7.60;2.13;;;;;;;10.30;46.08;102297.88;5015226;28;98956;-70
2023/04/19 03:46:58;;;;;;;4.13;2.53;;;;;;;10.34;45.85;102297.81;5011391;28;98911;-70
2023/04/19 03:49:25;;;;;;;7.85;2.55;;;;;;;10.31;46.15;102291.69;5010712;28;97281;-70
2023/04/19 03:51:51;;;;;;;4.55;1.98;;;;;;;10.37;46.23;102296.94;5019444;28;99244;-70
2023/04/19 03:54:17;;;;;;;6.85;2.03;;;;;;;10.40;46.25;102296.88;5018374;28;98218;-71
2023/04/19 03:56:45;;;;;;;5.22;2.42;;;;;;;10.51;46.11;102297.63;5001727;28;97010;-71
2023/04/19 03:59:11;;;;;;;8.02;2.65;;;;;;;10.36;46.36;102293.41;5007560;28;97453;-70
2023/04/19 04:01:40;;;;;;;6.55;2.22;;;;;;;10.30;46.78;102288.19;5005143;28;98136;-70
2023/04/19 04:04:07;;;;;;;4.93;2.40;;;;;;;10.31;46.68;102291.69;5005301;28;99185;-70
2023/04/19 04:06:34;;;;;;;8.70;3.08;;;;;;;10.19;47.29;102290.03;5018606;28;96779;-71
2023/04/19 04:09:01;;;;;;;8.70;2.53;;;;;;;10.19;47.58;102291.78;5002161;28;97245;-70
2023/04/19 04:11:27;;;;;;;8.43;3.50;;;;;;;10.12;47.55;102288.31;5010870;28;99366;-71
2023/04/19 04:13:55;;;;;;;8.05;2.70;;;;;;;9.92;48.28;102287.59;5000706;28;99258;-71
2023/04/19 04:16:22;;;;;;;5.65;2.13;;;;;;;10.11;48.07;102290.97;5005307;28;97102;-69
2023/04/19 04:18:49;;;;;;;4.70;2.25;;;;;;;10.04;47.91;102286.66;5009708;28;97372;-70
2023/04/19 04:21:15;;;;;;;7.50;2.20;;;;;;;10.27;48.09;102282.91;5014166;28;98254;-69
2023/04/19 04:23:41;;;;;;;4.03;1.98;;;;;;;10.21;48.03;102282.09;5007320;28;97633;-71
2023/04/19 04:26:08;;;;;;;7.00;2.10;;;;;;;10.35;48.31;102272.28;5003091;28;98556;-70
2023/04/19 04:28:35;;;;;;;7.85;2.47;;;;;;;10.12;48.28;102283.03;5009430;28;98000;-70
2023/04/19 04:31:03;;;;;;;11.32;2.50;;;;;;;10.15;48.31;102282.13;5012547;28;99088;-70
2023/04/19 04:33:32;;;;;;;5.72;2.45;;;;;;;10.14;48.85;102275.09;5009559;28;98838;-69
2023/04/19 04:35:59;;;;;;;5.78;2.15;;;;;;;10.05;49.14;102275.16;5006715;28;96837;-70
2023/04/19 04:38:26;;;;;;;10.45;3.05;;;;;;;10.13;48.77;102275.97;5004341;28;96862;-70
2023/04/19 04:40:53;;;;;;;5.63;2.45;;;;;;;10.29;48.88;102269.69;5001438;28;99016;-71
2023/04/19 04:43:24;;;;;;;10.20;3.20;;;;;;;10.29;48.98;102265.28;5009858;27;97732;-70
2023/04/19 04:45:54;;;;;;;5.82;2.30;;;;;;;10.42;49.06;102265.16;5011397;28;96961;-72
2023/04/19 04:48:22;;;;;;;8.90;2.92;;;;;;;10.50;48.47;102266.81;5000967;28;98762;-71
2023/04/19 04:50:48;;;;;;;9.77;2.85;;;;;;;10.57;48.86;102264.97;5002643;28;99450;-73
2023/04/19 04:53:15;;;;;;;7.63;2.50;;;;;;;10.36;49.18;102260.81;5013536;28;100558;-72
2023/04/19 04:55:41;;;;;;;9.02;2.30;;;;;;;10.52;49.15;102269.44;5003821;28;98456;-72
2023/04/19 04:58:08;;;;;;;7.40;2.42;;;;;;;10.60;49.07;102264.94;5006888;28;97722;-72
2023/04/19 05:00:34;;;;;;;7.47;2.30;;;;;;;10.45;49.15;102265.97;4997809;28;99484;-71
2023/04/19 05:03:01;;;;;;;7.97;2.72;;;;;;;10.61;49.29;102261.41;5008393;28;99185;-71
2023/04/19 05:05:29;;;;;;;8.93;2.70;;;;;;;10.61;49.21;102261.41;5004402;28;96771;-71
2023/04/19 05:07:56;;;;;;;5.35;2.60;;;;;;;10.81;48.72;102269.97;5003898;28;98681;-71
2023/04/19 05:10:22;;;;;;;7.43;3.40;;;;;;;10.83;48.75;102259.41;5008470;28;98925;-71
2023/04/19 05:12:48;;;;;;;6.88;2.50;;;;;;;10.71;48.74;102253.34;5003904;28;99471;-72
2023/04/19 05:15:15;;;;;;;5.72;2.67;;;;;;;10.60;49.06;102252.59;4999366;28;97160;-70
2023/04/19 05:17:42;;;;;;;5.82;2.38;;;;;;;10.75;48.85;102249.78;5002952;28;97102;-70
2023/04/19 05:20:09;;;;;;;10.93;2.78;;;;;;;10.85;48.77;102249.66;5008037;28;99482;-70
2023/04/19 05:22:37;;;;;;;10.52;2.90;;;;;;;10.85;48.85;102247.88;5009609;28;99334;-71
2023/04/19 05:25:04;;;;;;;8.05;2.70;;;;;;;10.96;48.39;102253.06;5012894;28;96917;-72
2023/04/19 05:27:31;;;;;;;11.07;3.22;;;;;;;10.87;48.92;102245.22;5004810;28;96942;-72
2023/04/19 05:29:57;;;;;;;4.47;2.35;;;;;;;10.93;48.74;102238.09;5008290;28;99117;-71
2023/04/19 05:32:23;;;;;;;4.55;2.40;;;;;;;10.90;49.16;102240.75;5013201;28;98975;-70
2023/04/19 05:34:50;;;;;;;5.47;2.15;;;;;;;10.92;48.92;102246.03;5006080;28;97059;-71
2023/04/19 05:37:17;;;;;;;5.45;1.88;;;;;;;10.98;48.44;102235.38;5004637;28;97005;-71
2023/04/19 05:39:44;;;;;;;7.25;1.92;;;;;;;11.27;48.49;102233.22;5007756;28;99206;-71
2023/04/19 05:42:11;;;;;;;9.40;2.67;;;;;;;11.12;48.30;102231.66;5014586;28;97526;-70
2023/04/19 05:44:37;;;;;;;4.32;2.20;;;;;;;11.39;47.80;102232.13;5010455;28;96980;-69
2023/04/19 05:47:04;;;;;;;10.98;3.85;;;;;;;11.35;47.88;102230.44;5008278;28;96846;-71
2023/04/19 05:49:31;;;;;;;13.75;2.80;;;;;;;11.49;47.69;102231.97;5011880;28;99517;-71
2023/04/19 05:51:58;;;;;;;9.35;2.08;;;;;;;11.58;47.36;102220.34;5010195;28;98943;-71
2023/04/19 05:54:26;;;;;;;5.20;1.90;;;;;;;11.57;46.85;102224.78;5000776;28;96824;-71
2023/04/19 05:56:55;;;;;;;6.97;1.77;;;;;;;11.56;46.98;102227.44;5011088;28;98532;-71
2023/04/19 05:59:22;;;;;;;4.13;1.75;;;;;;;11.49;47.18;102228.44;5007749;28;98832;-71
2023/04/19 06:01:48;;;;;;;6.82;2.00;;;;;;;11.41;47.41;102231.22;5001358;28;98763;-70
2023/04/19 06:04:15;;;;;;;5.85;1.77;;;;;;;11.51;47.21;102227.53;5007790;28;97156;-70
2023/04/19 06:06:41;;;;;;;6.03;2.78;;;;;;;11.43;47.37;102228.53;5001700;28;98886;-70
2023/04/19 06:09:08;;;;;;;9.00;2.55;;;;;;;11.62;46.81;102218.56;5007389;28;100051;-71
2023/04/19 06:11:34;;;;;;;8.10;1.92;;;;;;;11.83;46.30;102237.63;5000536;28;100430;-70
2023/04/19 06:14:02;;;;;;;4.22;1.80;;;;;;;11.91;46.34;102224.25;4995053;28;98457;-71
2023/04/19 06:16:28;;;;;;;5.05;1.63;;;;;;;11.95;45.86;102223.28;5003343;28;97007;-70
2023/04/19 06:18:55;;;;;;;6.70;2.05;;;;;;;11.88;46.45;102226.97;5000100;28;99481;-70
2023/04/19 06:21:21;;;;;;;6.45;2.35;;;;;;;11.97;45.96;102226.78;5004031;28;99425;-71
2023/04/19 06:23:48;;;;;;;4.80;1.60;;;;;;;12.25;45.43;102222.72;5000244;28;96796;-70
2023/04/19 06:26:14;;;;;;;8.30;2.80;;;;;;;12.51;45.11;102216.03;4993707;28;97639;-70
2023/04/19 06:28:41;;;;;;;7.28;2.40;;;;;;;12.72;44.56;102221.78;5009153;28;99765;-70
2023/04/19 06:31:08;;;;;;;4.90;2.25;;;;;;;12.81;44.06;102222.47;4997688;28;101597;-69
2023/04/19 06:33:35;;;;;;;6.82;1.70;;;;;;;12.93;43.39;102220.44;4997874;28;97085;-70
2023/04/19 06:36:02;;;;;;;7.53;1.90;;;;;;;13.08;43.23;102219.22;5000299;28;97857;-70
2023/04/19 06:38:29;;;;;;;6.05;1.50;;;;;;;13.14;42.78;102219.13;5006330;28;99106;-70
2023/04/19 06:40:56;;;;;;;3.85;1.50;;;;;;;13.01;42.73;102215.84;5005509;28;99092;-70
2023/04/19 06:43:23;;;;;;;9.43;1.67;;;;;;;13.47;42.59;102217.44;5006122;28;98590;-71
2023/04/19 06:45:49;;;;;;;8.65;2.05;;;;;;;13.47;42.31;102214.78;5005202;28;98018;-71
2023/04/19 06:48:18;;;;;;;5.95;1.80;;;;;;;13.53;42.14;102214.63;5000387;28;99008;-69
2023/04/19 06:50:44;;;;;;;5.63;2.10;;;;;;;13.84;41.41;102204.13;5007757;28;98892;-71
2023/04/19 06:53:14;;;;;;;3.83;1.60;;;;;;;13.89;40.72;102208.41;5001027;28;98280;-70
2023/04/19 06:55:41;;;;;;;5.18;1.92;;;;;;;13.97;40.54;102200.25;5003272;28;97249;-71
2023/04/19 06:58:09;;;;;;;8.93;1.60;;;;;;;13.84;40.34;102188.19;5005949;28;99455;-71
2023/04/19 07:00:36;;;;;;;7.88;2.03;;;;;;;14.07;40.08;102184.91;5003890;28;100266;-72
2023/04/19 07:03:03;;;;;;;6.65;1.65;;;;;;;14.10;39.81;102188.38;5002943;28;96822;-71
2023/04/19 07:05:31;;;;;;;7.70;1.80;;;;;;;14.06;39.53;102185.81;5003167;28;97395;-72
2023/04/19 07:07:58;;;;;;;4.95;1.80;;;;;;;14.10;39.23;102171.56;4992958;28;99368;-72
2023/04/19 07:10:25;;;;;;;9.77;1.67;;;;;;;14.37;38.78;102178.75;5005444;28;99441;-72
2023/04/19 07:12:51;;;;;;;5.97;2.10;;;;;;;14.63;38.33;102178.91;5001421;28;96780;-73
2023/04/19 07:15:18;;;;;;;5.55;1.67;;;;;;;15.48;36.83;102162.88;5005837;28;96823;-72
2023/04/19 07:17:45;;;;;;;4.88;1.92;;;;;;;16.02;35.58;102163.69;5005078;28;98826;-72
2023/04/19 07:20:12;;;;;;;10.18;1.60;;;;;;;15.73;35.16;102154.94;5008616;28;98102;-73
2023/04/19 07:22:40;;;;;;;7.45;1.90;;;;;;;15.53;35.63;102149.44;5003468;28;97001;-72
2023/04/19 07:25:07;;;;;;;5.47;1.80;;;;;;;15.46;35.67;102153.19;5006641;28;98545;-71
2023/04/19 07:27:33;;;;;;;5.63;1.83;;;;;;;15.53;35.33;102146.78;5004179;28;101997;-72
2023/04/19 07:30:00;;;;;;;6.68;2.10;;;;;;;15.46;35.48;102148.75;5001612;28;98964;-70
2023/04/19 07:32:26;;;;;;;9.27;1.63;;;;;;;15.42;36.12;102152.44;5004060;28;98518;-69
2023/04/19 07:34:52;;;;;;;5.60;1.80;;;;;;;15.55;36.01;102147.59;5009920;28;98290;-70
2023/04/19 07:37:19;;;;;;;8.15;1.52;;;;;;;15.65;34.48;102146.34;5003427;28;97947;-71
2023/04/19 07:39:47;;;;;;;4.05;1.42;;;;;;;15.69;33.91;102142.63;5003900;28;98819;-76
2023/04/19 07:42:13;;;;;;;7.20;1.70;;;;;;;15.88;33.86;102133.06;5002558;28;97343;-75
2023/04/19 07:44:40;;;;;;;5.32;1.60;;;;;;;16.52;33.14;102137.84;5007188;28;97444;-75
2023/04/19 07:47:06;;;;;;;7.95;1.83;;;;;;;15.90;32.83;102125.91;5000393;28;99376;-74
2023/04/19 07:49:33;;;;;;;7.38;2.15;;;;;;;16.09;33.08;102130.56;5002633;28;97565;-74
2023/04/19 07:52:00;;;;;;;6.78;2.33;;;;;;;15.98;32.26;102114.97;5001979;28;97061;-73
2023/04/19 07:54:27;;;;;;;6.65;2.05;;;;;;;16.08;31.55;102120.84;4996667;28;99272;-73
2023/04/19 07:56:56;;;;;;;4.57;1.67;;;;;;;16.11;31.84;102104.72;4994552;28;99275;-74
2023/04/19 07:59:22;;;;;;;3.72;1.63;;;;;;;16.02;31.64;102111.25;5005536;28;99376;-74
2023/04/19 08:01:50;;;;;;;4.20;1.85;;;;;;;15.89;31.99;102120.63;4990968;28;98945;-73
2023/04/19 08:04:18;;;;;;;4.68;1.42;;;;;;;15.71;32.70;102116.81;4996276;28;97725;-74
2023/04/19 08:06:45;;;;;;;7.88;2.35;;;;;;;15.96;32.11;102103.47;4995611;28;99303;-73
2023/04/19 08:09:12;;;;;;;3.75;1.85;;;;;;;16.14;32.15;102105.50;5001579;28;98987;-74
2023/04/19 08:11:38;;;;;;;4.25;1.83;;;;;;;16.02;31.30;102105.91;5000904;28;96975;-75
2023/04/19 08:14:06;;;;;;;6.30;1.75;;;;;;;15.83;31.38;102096.84;4998014;28;98697;-73
2023/04/19 08:16:32;;;;;;;6.97;1.88;;;;;;;15.74;31.60;102095.41;5003573;28;99180;-74
2023/04/19 08:18:58;;;;;;;4.55;1.65;;;;;;;15.70;31.60;102092.88;4992652;28;99308;-71
2023/04/19 08:21:25;;;;;;;3.55;1.60;;;;;;;15.82;31.26;102092.44;5005902;28;97113;-72
2023/04/19 08:23:52;;;;;;;6.10;1.63;;;;;;;16.15;30.68;102091.22;5000660;28;96911;-73
2023/04/19 08:26:18;;;;;;;6.00;2.05;;;;;;;16.07;30.86;102081.78;4993397;28;99460;-72
2023/04/19 08:28:45;;;;;;;8.70;2.15;;;;;;;16.03;30.92;102096.13;4996939;28;97924;-73
2023/04/19 08:31:12;;;;;;;5.95;2.13;;;;;;;16.00;30.84;102097.13;5005692;28;97249;-73
2023/04/19 08:33:39;;;;;;;6.78;1.83;;;;;;;15.65;31.00;102089.53;5002057;28;97275;-73
2023/04/19 08:36:06;;;;;;;6.38;1.83;;;;;;;15.87;30.74;102090.50;4996434;28;99241;-73
2023/04/19 08:38:32;;;;;;;3.47;1.63;;;;;;;16.25;30.35;102083.75;5002511;28;99223;-73
2023/04/19 08:41:00;;;;;;;4.63;2.00;;;;;;;16.01;30.32;102082.88;5001492;28;98341;-72
2023/04/19 08:43:32;;;;;;;5.30;2.30;;;;;;;16.39;30.26;102084.09;4994486;28;96953;-73
2023/04/19 08:45:59;;;;;;;6.07;1.85;;;;;;;16.40;30.24;102079.63;5002230;28;99046;-73
2023/04/19 08:48:27;;;;;;;3.90;1.73;;;;;;;16.67;30.18;102079.44;4998682;28;101068;-73
2023/04/19 08:50:54;;;;;;;8.18;2.42;;;;;;;16.96;29.72;102074.72;5004000;28;97381;-72
2023/04/19 08:53:22;;;;;;;5.97;2.25;;;;;;;17.11;29.42;102079.44;4998675;28;97043;-74
2023/04/19 08:55:49;;;;;;;7.43;2.28;;;;;;;17.26;29.32;102072.59;4997435;28;98627;-73
2023/04/19 08:58:16;;;;;;;6.60;2.30;;;;;;;17.30;29.05;102068.84;5003129;28;99428;-72
2023/04/19 09:00:42;;;;;;;8.68;2.45;;;;;;;17.19;29.10;102066.63;5004255;28;99567;-74
2023/04/19 09:03:10;;;;;;;7.90;2.15;;;;;;;17.41;28.99;102066.56;4995806;28;96829;-72
2023/04/19 09:05:37;;;;;;;7.30;2.47;;;;;;;17.50;28.92;102056.38;4999650;28;98374;-73
2023/04/19 09:08:25;;;;;;;5.45;1.73;;;;;;;17.52;28.94;102058.97;5006899;28;97935;-73
2023/04/19 09:10:56;;;;;;;9.80;2.80;;;;;;;17.64;28.56;102046.91;5001533;28;96808;-73
2023/04/19 09:13:23;;;;;;;7.88;2.70;;;;;;;17.22;28.51;102049.59;5008481;28;96955;-72
2023/04/19 09:15:50;;;;;;;7.38;2.58;;;;;;;17.34;28.88;102049.06;4997473;28;100622;-73
2023/04/19 09:18:16;;;;;;;6.40;2.25;;;;;;;17.56;28.32;102038.31;4997219;28;98878;-72
2023/04/19 09:20:45;;;;;;;5.65;1.80;;;;;;;17.58;28.19;102032.00;5002067;28;96808;-72
2023/04/19 09:23:14;;;;;;;6.97;2.20;;;;;;;17.17;28.61;102040.91;5003884;28;96923;-72
2023/04/19 09:25:52;;;;;;;11.70;2.15;;;;;;;16.88;28.43;102040.31;5010697;28;99409;-73
2023/04/19 09:28:18;;;;;;;5.85;2.50;;;;;;;16.83;29.32;102026.31;4999053;28;97692;-72
2023/04/19 09:30:45;;;;;;;7.05;1.95;;;;;;;16.80;28.79;102028.25;4999794;28;97452;-70
2023/04/19 09:33:12;;;;;;;4.07;1.92;;;;;;;16.79;28.87;102014.03;4999033;28;97532;-72
2023/04/19 09:35:44;;;;;;;12.88;2.50;;;;;;;16.59;28.51;102019.28;4999343;28;98978;-71
2023/04/19 09:38:11;;;;;;;7.57;2.03;;;;;;;16.76;28.66;102014.13;4999185;28;97691;-71
2023/04/19 09:40:39;;;;;;;11.05;2.38;;;;;;;16.83;28.52;102017.44;5000153;28;96841;-71
2023/04/19 09:43:06;;;;;;;7.00;2.13;;;;;;;17.06;28.46;102007.53;5006908;28;96808;-70
2023/04/19 09:45:40;;;;;;;9.68;2.47;;;;;;;16.88;28.27;102010.97;4994543;28;99173;-71
2023/04/19 09:48:08;;;;;;;10.13;3.28;;;;;;;17.03;28.38;102013.00;5006535;28;98923;-72
2023/04/19 09:50:35;;;;;;;7.88;2.53;;;;;;;16.89;28.46;102009.16;5002301;28;99382;-72
2023/04/19 09:53:06;;;;;;;3.92;2.30;;;;;;;16.98;28.22;102004.31;5000820;28;97236;-70
2023/04/19 09:55:37;;;;;;;7.15;2.15;;;;;;;16.80;28.87;101999.75;4998357;28;99071;-71
2023/04/19 09:58:04;;;;;;;11.48;2.63;;;;;;;16.84;28.82;101995.16;5000097;28;99409;-72
2023/04/19 10:00:30;;;;;;;8.18;2.58;;;;;;;17.36;28.60;101996.44;5004352;28;97415;-70
2023/04/19 10:02:57;;;;;;;3.60;1.98;;;;;;;17.42;28.51;101994.38;5005332;28;97876;-70
2023/04/19 10:05:24;;;;;;;5.25;2.10;;;;;;;17.59;28.02;101984.75;4997936;28;98196;-74
2023/04/19 10:07:52;;;;;;;14.93;2.65;;;;;;;17.14;28.15;101984.03;5004091;28;99177;-73
2023/04/19 10:10:21;;;;;;;4.43;2.17;;;;;;;17.18;28.15;101989.25;5001017;28;96767;-73
2023/04/19 10:12:51;;;;;;;6.30;1.92;;;;;;;17.30;27.85;101983.38;5000120;28;98054;-72
2023/04/19 10:15:20;;;;;;;4.70;2.22;;;;;;;17.73;27.72;101979.66;4998095;28;98958;-73
2023/04/19 10:17:47;;;;;;;5.10;1.98;;;;;;;18.06;27.31;101975.41;5007499;28;101651;-73
2023/04/19 10:20:20;;;;;;;9.13;2.30;;;;;;;18.02;27.04;101973.84;5004944;28;97130;-73
2023/04/19 10:22:47;;;;;;;4.82;2.30;;;;;;;18.26;26.93;101969.97;5005400;28;97241;-72
2023/04/19 10:25:15;;;;;;;9.88;2.97;;;;;;;18.55;26.62;101951.66;4997808;28;101029;-73
2023/04/19 10:27:47;;;;;;;7.38;2.50;;;;;;;18.68;26.80;101961.69;5005378;28;99977;-73
2023/04/19 10:30:18;;;;;;;7.35;2.45;;;;;;;18.71;26.49;101961.53;5003082;28;98069;-72
2023/04/19 10:32:51;;;;;;;7.85;3.03;;;;;;;18.29;26.86;101966.31;5005811;28;97452;-72
2023/04/19 10:35:19;;;;;;;4.50;2.30;;;;;;;17.95;26.79;101963.50;4995727;28;98031;-73
2023/04/19 10:38:05;;;;;;;4.70;2.28;;;;;;;17.77;27.17;101979.47;5007742;28;97946;-71
2023/04/19 10:40:55;;;;;;;4.97;2.30;;;;;;;17.70;27.26;101978.00;5003227;28;97244;-70
2023/04/19 10:43:24;;;;;;;9.38;2.63;;;;;;;17.84;27.40;101970.22;4999595;28;97701;-71
2023/04/19 10:45:51;;;;;;;8.13;2.75;;;;;;;17.57;27.71;101954.53;4999447;28;99797;-71
2023/04/19 10:48:42;;;;;;;9.02;2.72;;;;;;;18.08;27.19;101953.94;5001796;28;99295;-70
2023/04/19 10:51:14;;;;;;;6.78;2.60;;;;;;;18.14;27.49;101954.53;5002207;28;96936;-70
2023/04/19 10:53:59;;;;;;;11.93;2.58;;;;;;;17.87;27.87;101958.50;5007228;28;96901;-71
2023/04/19 10:57:01;;;;;;;9.88;2.60;;;;;;;17.50;27.59;101960.16;5004210;28;98962;-71
2023/04/19 10:59:31;;;;;;;7.90;2.70;;;;;;;17.69;27.50;101962.91;5001893;28;98915;-70
2023/04/19 11:01:59;;;;;;;9.98;2.67;;;;;;;17.86;27.51;101941.59;5001355;28;98409;-71
2023/04/19 11:05:10;;;;;;;11.15;3.15;;;;;;;17.80;27.55;101957.91;5001370;28;97206;-71
2023/04/19 11:07:38;;;;;;;5.45;2.17;;;;;;;18.18;26.90;101939.22;4996121;28;99478;-72
2023/04/19 11:10:05;;;;;;;10.15;3.05;;;;;;;18.35;26.97;101946.41;4999533;28;98800;-70
2023/04/19 11:12:31;;;;;;;16.00;3.30;;;;;;;18.75;26.64;101939.97;5008471;28;96875;-70
2023/04/19 11:14:59;;;;;;;9.60;2.60;;;;;;;18.84;26.46;101935.00;4998767;28;96970;-71
2023/04/19 11:17:29;;;;;;;9.75;2.50;;;;;;;18.96;26.35;101925.50;5001148;28;98844;-71
2023/04/19 11:19:57;;;;;;;4.53;2.42;;;;;;;19.17;26.25;101935.06;5003182;28;98789;-72
2023/04/19 11:22:31;;;;;;;10.95;2.17;;;;;;;19.45;25.96;101931.78;5004033;28;97439;-71
2023/04/19 11:25:05;;;;;;;8.55;2.40;;;;;;;19.70;25.83;101929.53;5002287;28;97938;-71
2023/04/19 11:27:32;;;;;;;14.45;2.40;;;;;;;19.49;25.76;101923.53;5001055;28;101315;-70